createdAt,value
2019-03-25T00:02:27.129Z,73.15
2019-03-25T00:04:53.330Z,73.22
2019-03-25T00:07:19.492Z,73.47
2019-03-25T00:09:45.725Z,73.44
2019-03-25T00:12:11.869Z,73.87
2019-03-25T00:14:38.040Z,73.71
2019-03-25T00:17:05.432Z,74.06
2019-03-25T00:19:31.552Z,74.04
2019-03-25T00:21:57.777Z,73.66
2019-03-25T00:24:23.924Z,73.42
2019-03-25T00:26:50.187Z,73.35
2019-03-25T00:29:16.434Z,73.72
2019-03-25T00:31:42.688Z,73.96
2019-03-25T00:34:09.026Z,73.89
2019-03-25T00:36:35.201Z,73.73
2019-03-25T00:39:01.460Z,73.55
2019-03-25T00:41:27.692Z,74.43
2019-03-25T00:43:53.934Z,74.46
2019-03-25T00:46:20.117Z,74.41
2019-03-25T00:48:46.261Z,75.19
2019-03-25T00:51:12.512Z,74.85
2019-03-25T00:53:38.700Z,74.72
2019-03-25T00:56:04.943Z,74.34
2019-03-25T00:58:31.172Z,74.14
2019-03-25T01:00:57.434Z,73.91
2019-03-25T01:03:25.681Z,73.99
2019-03-25T01:05:51.983Z,74.20
2019-03-25T01:08:20.274Z,74.23
2019-03-25T01:10:46.518Z,74.20
2019-03-25T01:13:12.653Z,74.24
2019-03-25T01:15:38.984Z,74.16
2019-03-25T01:18:16.092Z,74.31
2019-03-25T01:20:33.329Z,74.22
2019-03-25T01:22:59.691Z,74.43
2019-03-25T01:25:25.935Z,74.27
2019-03-25T01:27:52.203Z,74.06
2019-03-25T01:30:18.475Z,74.49
2019-03-25T01:32:44.820Z,75.08
2019-03-25T01:35:12.241Z,75.38
2019-03-25T01:37:38.536Z,75.20
2019-03-25T01:40:06.719Z,74.93
2019-03-25T01:42:33.149Z,74.83
2019-03-25T01:44:59.381Z,74.89
2019-03-25T01:47:25.638Z,74.56
2019-03-25T01:49:51.963Z,74.53
2019-03-25T01:52:18.156Z,74.81
2019-03-25T01:54:44.384Z,74.96
2019-03-25T01:57:10.693Z,75.12
2019-03-25T01:59:36.897Z,75.03
2019-03-25T02:02:03.173Z,75.02
2019-03-25T02:04:29.520Z,74.73
2019-03-25T02:06:58.532Z,74.24
2019-03-25T02:09:24.888Z,73.89
2019-03-25T02:11:51.050Z,73.78
2019-03-25T02:14:17.218Z,73.53
2019-03-25T02:16:43.501Z,73.30
2019-03-25T02:19:09.780Z,73.24
2019-03-25T02:21:36.078Z,73.10
2019-03-25T02:24:02.352Z,73.04
2019-03-25T02:26:28.549Z,72.95
2019-03-25T02:28:54.933Z,72.98
2019-03-25T02:31:21.100Z,72.92
2019-03-25T02:33:47.277Z,72.63
2019-03-25T02:36:13.653Z,72.58
2019-03-25T02:38:39.883Z,72.52
2019-03-25T02:41:06.114Z,72.44
2019-03-25T02:43:32.355Z,72.38
2019-03-25T02:45:58.628Z,72.27
2019-03-25T02:48:24.906Z,72.16
2019-03-25T02:50:51.163Z,72.10
2019-03-25T02:53:17.501Z,72.14
2019-03-25T02:55:43.737Z,72.13
2019-03-25T02:58:09.899Z,72.09
2019-03-25T03:00:37.261Z,72.12
2019-03-25T03:03:05.066Z,72.02
2019-03-25T03:05:31.209Z,71.94
2019-03-25T03:07:57.365Z,71.91
2019-03-25T03:10:23.552Z,71.92
2019-03-25T03:12:49.807Z,71.89
2019-03-25T03:15:15.986Z,72.05
2019-03-25T03:17:42.142Z,72.11
2019-03-25T03:20:08.504Z,72.10
2019-03-25T03:22:34.878Z,72.19
2019-03-25T03:25:01.144Z,72.17
2019-03-25T03:27:29.947Z,72.20
2019-03-25T03:29:55.687Z,72.19
2019-03-25T03:32:21.975Z,72.21
2019-03-25T03:34:48.158Z,72.30
2019-03-25T03:37:14.440Z,72.23
2019-03-25T03:39:40.729Z,72.30
2019-03-25T03:42:06.987Z,72.31
2019-03-25T03:44:33.328Z,72.39
2019-03-25T03:46:59.518Z,72.44
2019-03-25T03:49:25.859Z,72.52
2019-03-25T03:51:53.676Z,72.07
2019-03-25T03:54:19.911Z,71.45
2019-03-25T03:56:47.394Z,71.47
2019-03-25T03:59:14.098Z,71.27
2019-03-25T04:01:40.278Z,71.64
2019-03-25T04:04:06.602Z,71.59
2019-03-25T04:06:32.913Z,71.56
2019-03-25T04:08:59.162Z,69.80
2019-03-25T04:11:25.469Z,70.46
2019-03-25T04:13:51.892Z,70.61
2019-03-25T04:16:18.108Z,70.68
2019-03-25T04:18:44.425Z,70.69
2019-03-25T04:21:10.721Z,70.76
2019-03-25T04:23:36.994Z,70.93
2019-03-25T04:26:03.369Z,71.00
2019-03-25T04:28:29.736Z,71.01
2019-03-25T04:30:55.924Z,70.98
2019-03-25T04:33:22.173Z,70.97
2019-03-25T04:35:48.459Z,71.62
2019-03-25T04:38:14.738Z,71.69
2019-03-25T04:40:40.895Z,71.60
2019-03-25T04:43:07.167Z,71.50
2019-03-25T04:45:33.418Z,71.72
2019-03-25T04:47:59.705Z,71.58
2019-03-25T04:50:25.973Z,71.50
2019-03-25T04:52:52.232Z,71.47
2019-03-25T04:55:18.486Z,71.21
2019-03-25T04:57:44.625Z,71.00
2019-03-25T05:00:11.437Z,70.99
2019-03-25T05:02:37.713Z,70.64
2019-03-25T05:05:06.862Z,70.90
2019-03-25T05:07:33.165Z,71.08
2019-03-25T05:09:59.415Z,71.38
2019-03-25T05:12:25.700Z,71.72
2019-03-25T05:14:52.001Z,71.76
2019-03-25T05:17:18.331Z,71.69
2019-03-25T05:19:44.609Z,71.53
2019-03-25T05:22:11.172Z,71.36
2019-03-25T05:24:37.534Z,71.57
2019-03-25T05:27:03.751Z,71.99
2019-03-25T05:29:30.186Z,72.05
2019-03-25T05:31:56.570Z,72.29
2019-03-25T05:34:22.811Z,72.17
2019-03-25T05:36:49.042Z,72.10
2019-03-25T05:39:15.404Z,72.39
2019-03-25T05:41:41.563Z,72.32
2019-03-25T05:44:08.001Z,72.18
2019-03-25T05:46:34.217Z,72.13
2019-03-25T05:49:00.389Z,72.03
2019-03-25T05:51:26.623Z,71.95
2019-03-25T05:53:52.759Z,71.91
2019-03-25T05:56:19.021Z,71.77
2019-03-25T05:58:45.294Z,71.62
2019-03-25T06:01:11.613Z,71.55
2019-03-25T06:03:38.234Z,71.45
2019-03-25T06:06:04.495Z,71.29
2019-03-25T06:08:30.751Z,71.09
2019-03-25T06:10:56.979Z,71.02
2019-03-25T06:13:23.178Z,71.07
2019-03-25T06:15:49.427Z,71.46
2019-03-25T06:18:15.708Z,71.47
2019-03-25T06:20:41.978Z,71.49
2019-03-25T06:23:08.263Z,71.51
2019-03-25T06:25:34.557Z,71.52
2019-03-25T06:28:01.985Z,71.63
2019-03-25T06:30:28.158Z,71.74
2019-03-25T06:32:54.387Z,71.54
2019-03-25T06:35:20.547Z,71.60
2019-03-25T06:37:46.719Z,71.76
2019-03-25T06:40:12.993Z,71.70
2019-03-25T06:42:39.132Z,71.54
2019-03-25T06:45:07.690Z,71.56
2019-03-25T06:47:33.982Z,71.53
2019-03-25T06:50:00.462Z,71.48
2019-03-25T06:52:26.751Z,71.15
2019-03-25T06:54:53.014Z,71.04
2019-03-25T06:57:25.532Z,71.01
2019-03-25T06:59:47.306Z,71.11
2019-03-25T07:02:13.463Z,71.14
2019-03-25T07:04:39.828Z,71.06
2019-03-25T07:07:06.089Z,70.89
2019-03-25T07:09:32.251Z,70.82
2019-03-25T07:11:58.795Z,70.84
2019-03-25T07:14:25.221Z,70.87
2019-03-25T07:16:51.509Z,70.96
2019-03-25T07:19:17.748Z,71.03
2019-03-25T07:21:43.974Z,71.02
2019-03-25T07:24:10.117Z,71.04
2019-03-25T07:26:37.787Z,70.97
2019-03-25T07:29:03.994Z,71.06
2019-03-25T07:31:30.159Z,70.96
2019-03-25T07:33:56.282Z,70.65
2019-03-25T07:36:22.445Z,70.44
2019-03-25T07:38:48.683Z,70.01
2019-03-25T07:41:17.041Z,69.86
2019-03-25T07:43:43.034Z,69.57
2019-03-25T07:46:11.089Z,69.36
2019-03-25T07:48:37.325Z,69.13
2019-03-25T07:51:03.495Z,68.67
2019-03-25T07:56:12.031Z,66.76
2019-03-25T07:58:39.637Z,67.28
2019-03-25T08:01:10.586Z,67.24
2019-03-25T08:03:36.883Z,67.20
2019-03-25T08:06:03.067Z,67.10
2019-03-25T08:08:29.381Z,67.10
2019-03-25T08:10:55.591Z,66.91
2019-03-25T08:13:21.920Z,65.92
2019-03-25T08:15:48.231Z,65.54
2019-03-25T08:18:14.507Z,65.58
2019-03-25T08:20:40.627Z,65.41
2019-03-25T08:23:06.752Z,65.66
2019-03-25T08:25:32.907Z,65.11
2019-03-25T08:28:00.270Z,64.48
2019-03-25T08:30:26.860Z,64.39
2019-03-25T08:32:52.975Z,63.82
2019-03-25T08:35:19.010Z,63.19
2019-03-25T08:37:45.127Z,63.09
2019-03-25T08:40:11.420Z,63.19
2019-03-25T08:42:39.476Z,63.32
2019-03-25T08:45:06.074Z,63.54
2019-03-25T08:47:32.233Z,63.86
2019-03-25T08:49:58.447Z,64.08
2019-03-25T08:52:24.476Z,64.06
2019-03-25T08:54:50.662Z,63.28
2019-03-25T08:57:16.844Z,63.29
2019-03-25T08:59:42.905Z,63.19
2019-03-25T09:02:09.033Z,63.18
2019-03-25T09:04:35.293Z,62.98
2019-03-25T09:07:01.451Z,62.71
2019-03-25T09:09:27.732Z,62.79
2019-03-25T09:11:53.887Z,62.86
2019-03-25T09:14:20.048Z,63.03
2019-03-25T09:16:46.283Z,62.73
2019-03-25T09:19:17.745Z,62.93
2019-03-25T09:21:43.879Z,64.24
2019-03-25T09:24:10.164Z,65.74
2019-03-25T09:26:37.825Z,66.32
2019-03-25T09:29:03.944Z,66.32
2019-03-25T09:31:36.706Z,66.49
2019-03-25T09:33:58.155Z,66.74
2019-03-25T09:36:24.303Z,66.68
2019-03-25T09:38:50.950Z,66.77
2019-03-25T09:41:17.516Z,66.86
2019-03-25T09:43:43.730Z,66.97
2019-03-25T09:46:09.862Z,67.06
2019-03-25T09:48:36.896Z,67.38
2019-03-25T09:51:03.734Z,67.16
2019-03-25T09:53:30.281Z,67.39
2019-03-25T09:55:56.378Z,67.75
2019-03-25T09:58:22.492Z,67.89
2019-03-25T10:00:48.644Z,68.13
2019-03-25T10:03:14.760Z,68.00
2019-03-25T10:05:40.906Z,68.58
2019-03-25T10:08:07.043Z,68.04
2019-03-25T10:10:33.112Z,68.22
2019-03-25T10:12:59.344Z,67.90
2019-03-25T10:15:25.614Z,67.09
2019-03-25T10:17:51.733Z,66.69
2019-03-25T10:20:17.888Z,66.52
2019-03-25T10:22:44.003Z,66.45
2019-03-25T10:25:10.923Z,66.36
2019-03-25T10:27:37.663Z,66.19
2019-03-25T10:30:13.055Z,65.87
2019-03-25T10:32:39.212Z,65.75
2019-03-25T10:35:06.171Z,66.21
2019-03-25T10:37:32.343Z,66.24
2019-03-25T10:39:58.500Z,64.85
2019-03-25T10:42:24.639Z,64.86
2019-03-25T10:44:50.828Z,64.60
2019-03-25T10:47:16.950Z,64.17
2019-03-25T10:49:46.942Z,63.75
2019-03-25T10:52:13.232Z,63.88
2019-03-25T10:54:39.403Z,63.58
2019-03-25T10:57:06.201Z,63.13
2019-03-25T10:59:32.402Z,62.14
2019-03-25T11:01:58.523Z,62.16
2019-03-25T11:04:24.740Z,62.28
2019-03-25T11:06:50.869Z,62.04
2019-03-25T11:09:19.202Z,61.06
2019-03-25T11:11:45.326Z,60.17
2019-03-25T11:14:11.499Z,60.27
2019-03-25T11:16:37.722Z,60.22
2019-03-25T11:19:03.882Z,60.65
2019-03-25T11:21:30.003Z,60.75
2019-03-25T11:23:56.133Z,60.96
2019-03-25T11:26:22.249Z,60.82
2019-03-25T11:28:48.323Z,60.84
2019-03-25T11:31:14.450Z,59.98
2019-03-25T11:33:40.561Z,59.21
2019-03-25T11:36:06.794Z,59.61
2019-03-25T11:38:32.924Z,60.16
2019-03-25T11:40:59.039Z,60.68
2019-03-25T11:43:25.172Z,60.23
2019-03-25T11:45:51.381Z,60.03
2019-03-25T11:48:17.511Z,60.45
2019-03-25T11:50:43.642Z,59.88
2019-03-25T11:53:09.771Z,58.35
2019-03-25T11:55:35.882Z,57.50
2019-03-25T11:58:01.923Z,57.27
2019-03-25T12:00:28.169Z,56.35
2019-03-25T12:02:54.305Z,57.04
2019-03-25T12:05:20.541Z,56.70
2019-03-25T12:07:46.670Z,56.01
2019-03-25T12:10:12.787Z,56.11
2019-03-25T12:12:38.912Z,55.71
2019-03-25T12:15:05.673Z,55.66
2019-03-25T12:17:31.795Z,55.87
2019-03-25T12:19:57.918Z,55.16
2019-03-25T12:22:24.063Z,56.24
2019-03-25T12:24:50.187Z,56.49
2019-03-25T12:27:16.355Z,55.89
2019-03-25T12:29:45.314Z,55.58
2019-03-25T12:32:11.427Z,55.86
2019-03-25T12:34:37.560Z,55.17
2019-03-25T12:37:03.680Z,54.35
2019-03-25T12:39:29.819Z,54.46
2019-03-25T12:41:55.876Z,51.18
2019-03-25T12:44:22.009Z,52.49
2019-03-25T12:46:48.157Z,51.58
2019-03-25T12:49:14.277Z,51.71
2019-03-25T12:51:40.340Z,51.52
2019-03-25T12:54:06.482Z,50.98
2019-03-25T12:56:32.632Z,49.78
2019-03-25T12:58:58.687Z,50.11
2019-03-25T13:01:26.925Z,48.56
2019-03-25T13:03:53.162Z,48.95
2019-03-25T13:06:19.306Z,50.12
2019-03-25T13:08:45.430Z,49.78
2019-03-25T13:11:11.546Z,50.04
2019-03-25T13:13:37.604Z,50.88
2019-03-25T13:16:03.751Z,51.57
2019-03-25T13:18:29.889Z,52.64
2019-03-25T13:20:56.005Z,54.02
2019-03-25T13:23:22.128Z,54.26
2019-03-25T13:25:48.244Z,54.75
2019-03-25T13:28:14.376Z,55.45
2019-03-25T13:30:40.510Z,55.52
2019-03-25T13:33:06.617Z,56.22
2019-03-25T13:35:32.740Z,56.17
2019-03-25T13:37:59.095Z,56.11
2019-03-25T13:40:25.292Z,56.25
2019-03-25T14:35:44.852Z,65.41
2019-03-25T14:38:10.992Z,65.27
2019-03-25T14:40:37.153Z,65.31
2019-03-25T14:43:03.407Z,65.17
2019-03-25T14:45:29.586Z,65.19
2019-03-25T14:47:55.715Z,65.39
2019-03-25T14:50:21.875Z,65.80
2019-03-25T14:52:48.041Z,66.17
2019-03-25T14:55:16.281Z,66.09
2019-03-25T14:57:42.414Z,66.12
2019-03-25T15:00:09.555Z,66.53
2019-03-25T15:02:35.697Z,66.67
2019-03-25T15:05:02.501Z,66.92
2019-03-25T15:07:28.665Z,66.08
2019-03-25T15:09:54.803Z,66.55
2019-03-25T15:12:21.030Z,66.77
2019-03-25T15:14:47.254Z,66.59
2019-03-25T15:17:15.845Z,66.81
2019-03-25T15:19:41.988Z,67.20
2019-03-25T15:22:08.121Z,67.22
2019-03-25T15:24:34.290Z,67.05
2019-03-25T15:27:00.442Z,67.29
2019-03-25T15:29:26.590Z,67.84
2019-03-25T15:31:52.825Z,68.30
2019-03-25T15:34:18.962Z,68.31
2019-03-25T15:36:45.111Z,68.33
2019-03-25T15:39:11.285Z,69.27
2019-03-25T15:41:37.392Z,71.61
2019-03-25T15:44:03.525Z,71.31
2019-03-25T15:46:29.808Z,72.30
2019-03-25T15:48:56.087Z,73.56
2019-03-25T15:51:22.328Z,73.63
2019-03-25T15:53:48.491Z,74.09
2019-03-25T15:56:14.647Z,74.22
2019-03-25T15:58:41.019Z,74.15
2019-03-25T16:01:07.177Z,73.50
2019-03-25T16:03:35.211Z,72.65
2019-03-25T16:06:01.372Z,72.35
2019-03-25T16:08:27.391Z,72.38
2019-03-25T16:10:53.735Z,72.41
2019-03-25T16:13:19.935Z,72.23
2019-03-25T16:15:46.172Z,71.74
2019-03-25T16:18:37.277Z,71.39
2019-03-25T16:21:04.125Z,71.30
2019-03-25T16:23:30.254Z,71.58
2019-03-25T16:25:56.514Z,72.11
2019-03-25T16:28:22.762Z,72.35
2019-03-25T16:30:58.174Z,72.78
2019-03-25T16:33:16.893Z,72.34
2019-03-25T16:35:43.585Z,72.08
2019-03-25T16:38:09.812Z,71.91
2019-03-25T16:40:35.910Z,71.76
2019-03-25T16:43:02.110Z,71.55
2019-03-25T16:45:28.231Z,71.59
2019-03-25T16:47:54.416Z,71.34
2019-03-25T16:50:20.559Z,71.55
2019-03-25T16:52:46.709Z,71.70
2019-03-25T16:55:12.971Z,71.54
2019-03-25T16:57:39.090Z,71.54
2019-03-25T17:00:05.351Z,72.14
2019-03-25T17:02:31.613Z,72.09
2019-03-25T17:04:57.746Z,72.17
2019-03-25T17:07:23.870Z,72.03
2019-03-25T17:09:50.140Z,72.51
2019-03-25T17:12:16.277Z,72.96
2019-03-25T17:14:42.401Z,72.62
2019-03-25T17:17:08.529Z,72.40
2019-03-25T17:19:34.697Z,73.05
2019-03-25T17:22:00.831Z,73.21
2019-03-25T17:24:29.384Z,72.79
2019-03-25T17:26:55.641Z,72.59
2019-03-25T17:29:21.790Z,72.45
2019-03-25T17:31:47.959Z,72.56
2019-03-25T17:34:14.116Z,72.39
2019-03-25T17:36:40.226Z,72.24
2019-03-25T17:39:07.993Z,72.13
2019-03-25T17:41:34.136Z,72.07
2019-03-25T17:44:00.274Z,72.37
2019-03-25T17:46:26.567Z,72.30
2019-03-25T17:48:52.753Z,72.25
2019-03-25T17:51:18.997Z,72.69
2019-03-25T17:53:45.268Z,73.13
2019-03-25T17:56:11.392Z,73.02
2019-03-25T17:58:37.556Z,72.56
2019-03-25T18:01:05.908Z,72.92
2019-03-25T18:03:32.011Z,72.61
2019-03-25T18:05:58.153Z,72.33
2019-03-25T18:08:24.285Z,72.52
2019-03-25T18:10:53.134Z,72.87
2019-03-25T18:13:22.650Z,73.29
2019-03-25T18:15:47.338Z,73.15
2019-03-25T18:18:13.484Z,73.10
2019-03-25T18:20:39.622Z,73.17
2019-03-25T18:23:05.789Z,73.34
2019-03-25T18:25:31.919Z,73.31
2019-03-25T18:27:58.055Z,73.05
2019-03-25T18:30:32.685Z,73.05
2019-03-25T18:32:58.819Z,73.62
2019-03-25T18:35:24.951Z,74.08
2019-03-25T18:37:51.121Z,73.85
2019-03-25T18:40:17.243Z,73.78
2019-03-25T18:42:43.395Z,73.69
2019-03-25T18:45:09.525Z,73.62
2019-03-25T18:47:35.656Z,73.57
2019-03-25T18:50:01.874Z,73.52
2019-03-25T18:52:28.044Z,73.46
2019-03-25T18:54:54.250Z,73.36
2019-03-25T18:57:20.391Z,73.70
2019-03-25T18:59:46.517Z,73.67
2019-03-25T19:02:12.656Z,73.58
2019-03-25T19:04:38.697Z,73.59
2019-03-25T19:07:04.948Z,73.71
2019-03-25T19:09:31.143Z,73.84
2019-03-25T19:11:57.327Z,73.71
2019-03-25T19:14:23.630Z,73.84
2019-03-25T19:16:49.773Z,74.11
2019-03-25T19:19:15.942Z,74.14
2019-03-25T19:21:42.138Z,74.14
2019-03-25T19:24:08.341Z,74.09
2019-03-25T19:26:34.549Z,74.58
2019-03-25T19:29:00.824Z,74.74
2019-03-25T19:31:27.172Z,74.84
2019-03-25T19:33:53.736Z,74.80
2019-03-25T19:36:19.868Z,75.18
2019-03-25T19:38:46.037Z,75.36
2019-03-25T19:41:12.286Z,75.35
2019-03-25T19:43:38.388Z,75.23
2019-03-25T19:46:07.556Z,75.62
2019-03-25T19:48:33.727Z,76.79
2019-03-25T19:50:59.894Z,77.27
2019-03-25T19:53:26.179Z,77.30
2019-03-25T19:55:52.502Z,77.17
2019-03-25T19:58:18.700Z,76.92
2019-03-25T20:00:45.014Z,76.55
2019-03-25T20:03:11.189Z,77.25
2019-03-25T20:05:37.358Z,77.48
2019-03-25T20:08:03.522Z,77.59
2019-03-25T20:10:32.068Z,77.19
2019-03-25T20:12:58.530Z,77.03
2019-03-25T20:15:24.750Z,77.39
2019-03-25T20:17:50.907Z,77.15
2019-03-25T20:20:17.116Z,76.83
2019-03-25T20:22:43.471Z,76.97
2019-03-25T20:25:09.785Z,77.67
2019-03-25T20:27:35.977Z,77.47
2019-03-25T20:30:05.658Z,77.38
2019-03-25T20:32:32.340Z,77.19
2019-03-25T20:34:58.667Z,76.63
2019-03-25T20:37:24.799Z,75.78
2019-03-25T20:39:50.941Z,74.86
2019-03-25T20:42:17.118Z,74.20
2019-03-25T20:44:43.250Z,74.01
2019-03-25T20:47:09.406Z,74.40
2019-03-25T20:49:35.777Z,73.64
2019-03-25T20:52:02.127Z,72.74
2019-03-25T20:54:28.356Z,73.07
2019-03-25T20:56:54.472Z,73.03
2019-03-25T20:59:20.542Z,72.52
2019-03-25T21:01:46.775Z,72.13
2019-03-25T21:04:12.880Z,71.44
2019-03-25T21:06:39.167Z,70.80
2019-03-25T21:09:06.052Z,70.55
2019-03-25T21:11:32.166Z,70.67
2019-03-25T21:13:58.355Z,71.05
2019-03-25T21:16:25.793Z,70.87
2019-03-25T21:18:52.397Z,70.51
2019-03-25T21:21:18.680Z,70.44
2019-03-25T21:23:46.883Z,70.51
2019-03-25T21:26:12.887Z,70.36
2019-03-25T21:28:39.220Z,70.62
2019-03-25T21:31:05.415Z,70.42
2019-03-25T21:33:31.615Z,70.15
2019-03-25T21:35:57.872Z,70.54
2019-03-25T21:38:24.229Z,69.91
2019-03-25T21:40:50.429Z,70.29
2019-03-25T21:43:16.676Z,70.69
2019-03-25T21:45:42.988Z,70.87
2019-03-25T21:48:09.206Z,70.91
2019-03-25T21:50:35.487Z,70.94
2019-03-25T21:53:01.567Z,71.08
2019-03-25T21:55:27.704Z,69.59
2019-03-25T21:57:54.026Z,69.46
2019-03-25T22:00:20.365Z,69.84
2019-03-25T22:02:48.546Z,69.72
2019-03-25T22:05:14.550Z,69.88
2019-03-25T22:07:40.693Z,69.77
2019-03-25T22:10:07.525Z,69.52
2019-03-25T22:12:33.765Z,69.20
2019-03-25T22:14:59.805Z,69.36
2019-03-25T22:17:26.062Z,69.19
2019-03-25T22:19:52.122Z,68.89
2019-03-25T22:22:18.169Z,69.20
2019-03-25T22:24:44.295Z,68.84
2019-03-25T22:27:10.355Z,68.82
2019-03-25T22:29:36.534Z,68.84
2019-03-25T22:32:02.794Z,68.95
2019-03-25T22:34:34.996Z,69.35
2019-03-25T22:37:00.471Z,69.31
2019-03-25T22:39:26.635Z,69.99
2019-03-25T22:41:52.777Z,70.60
2019-03-25T22:44:18.854Z,70.32
2019-03-25T22:46:44.987Z,70.60
2019-03-25T22:49:11.223Z,70.11
2019-03-25T22:51:37.564Z,70.40
2019-03-25T22:54:03.702Z,70.56
2019-03-25T22:56:29.856Z,70.62
2019-03-25T22:58:56.024Z,70.90
2019-03-25T23:01:22.789Z,70.90
2019-03-25T23:03:48.935Z,70.85
2019-03-25T23:06:15.110Z,70.85
2019-03-25T23:08:41.245Z,70.64
2019-03-25T23:11:07.386Z,70.71
2019-03-25T23:13:33.429Z,70.86
2019-03-25T23:15:59.597Z,70.85
2019-03-25T23:18:25.727Z,70.70
2019-03-25T23:20:51.868Z,70.79
2019-03-25T23:23:18.000Z,70.82
2019-03-25T23:25:48.716Z,71.00
2019-03-25T23:28:12.368Z,71.00
2019-03-25T23:30:38.507Z,71.08
2019-03-25T23:33:04.642Z,71.21
2019-03-25T23:35:30.769Z,71.33
2019-03-25T23:38:04.022Z,71.24
2019-03-25T23:40:30.225Z,71.53
2019-03-25T23:42:56.335Z,71.57
2019-03-25T23:45:22.369Z,71.63
2019-03-25T23:47:49.697Z,71.37
2019-03-25T23:50:15.833Z,71.51
2019-03-25T23:52:41.972Z,71.46
2019-03-25T23:55:08.296Z,71.23
2019-03-25T23:57:34.431Z,71.15
